createdAt,value
2018-02-25T13:25:11.013Z,1010.9
2018-02-25T13:26:12.717Z,1010.9
2018-02-25T13:27:15.046Z,1010.9
2018-02-25T13:28:16.672Z,1010.9
2018-02-25T13:29:19.512Z,1010.9
2018-02-25T13:30:21.211Z,1010.8
2018-02-25T13:31:23.022Z,1010.8
2018-02-25T13:32:24.795Z,1010.8
2018-02-25T13:33:26.544Z,1010.8
2018-02-25T13:34:28.396Z,1010.8
2018-02-25T13:35:30.150Z,1010.7
2018-02-25T13:36:31.889Z,1010.7
2018-02-25T13:37:33.722Z,1010.7
2018-02-25T13:38:35.497Z,1010.7
2018-02-25T13:39:37.226Z,1010.7
2018-02-25T13:40:39.009Z,1010.7
2018-02-25T13:41:40.800Z,1010.8
2018-02-25T13:42:42.613Z,1010.8
2018-02-25T13:43:44.355Z,1010.7
2018-02-25T13:44:46.153Z,1010.7
2018-02-25T13:45:47.972Z,1010.7
2018-02-25T13:46:49.750Z,1010.7
2018-02-25T13:47:51.520Z,1010.6
2018-02-25T13:48:53.286Z,1010.6
2018-02-25T13:49:55.007Z,1010.7
2018-02-25T13:50:56.769Z,1010.7
2018-02-25T13:51:58.561Z,1010.7
2018-02-25T13:53:00.403Z,1010.7
2018-02-25T13:54:02.736Z,1010.7
2018-02-25T13:55:04.496Z,1010.7
2018-02-25T13:56:06.296Z,1010.7
2018-02-25T13:57:08.118Z,1010.7
2018-02-25T13:58:09.869Z,1010.7
2018-02-25T13:59:11.676Z,1010.7
2018-02-25T14:00:13.589Z,1010.7
2018-02-25T14:01:15.378Z,1010.6
2018-02-25T14:02:17.663Z,1010.6
2018-02-25T14:03:19.526Z,1010.7
2018-02-25T14:04:21.301Z,1010.7
2018-02-25T14:05:23.058Z,1010.6
2018-02-25T14:06:24.810Z,1010.6
2018-02-25T14:07:26.788Z,1010.5
2018-02-25T14:08:28.535Z,1010.5
2018-02-25T14:09:30.308Z,1010.5
2018-02-25T14:10:32.164Z,1010.4
2018-02-25T14:11:35.075Z,1010.3
2018-02-25T14:12:36.870Z,1010.3
2018-02-25T14:13:38.645Z,1010.3
2018-02-25T14:14:40.595Z,1010.3
2018-02-25T14:15:42.547Z,1010.2
2018-02-25T14:16:44.448Z,1010.3
2018-02-25T14:17:46.406Z,1010.3
2018-02-25T14:18:48.222Z,1010.3
2018-02-25T14:19:50.074Z,1010.3
2018-02-25T14:20:51.966Z,1010.3
2018-02-25T14:21:53.813Z,1010.2
2018-02-25T14:22:55.826Z,1010.2
2018-02-25T14:23:57.709Z,1010.2
2018-02-25T14:25:00.249Z,1010.3
2018-02-25T14:26:02.116Z,1010.3
2018-02-25T14:27:03.953Z,1010.3
2018-02-25T14:28:05.719Z,1010.3
2018-02-25T14:29:07.596Z,1010.4
2018-02-25T14:30:09.396Z,1010.4
2018-02-25T14:31:11.447Z,1010.4
2018-02-25T14:32:13.341Z,1010.4
2018-02-25T14:33:15.425Z,1010.5
2018-02-25T14:34:17.291Z,1010.6
2018-02-25T14:35:19.221Z,1010.6
2018-02-25T14:36:21.041Z,1010.6
2018-02-25T14:37:23.060Z,1010.6
2018-02-25T14:38:25.487Z,1010.6
2018-02-25T14:39:27.583Z,1010.5
2018-02-25T14:40:33.568Z,1010.5
2018-02-25T14:41:41.223Z,1010.5
2018-02-25T14:42:48.916Z,1010.5
2018-02-25T14:43:55.482Z,1010.5
2018-02-25T14:44:56.986Z,1010.4
2018-02-25T14:46:05.162Z,1010.1
2018-02-25T14:47:11.539Z,1010.1
2018-02-25T14:48:18.419Z,1010.0
2018-02-25T14:49:27.469Z,1010.0
2018-02-25T14:50:29.089Z,1010.0
2018-02-25T14:51:30.996Z,1010.0
2018-02-25T14:52:32.784Z,1010.1
2018-02-25T14:53:34.691Z,1010.1
2018-02-25T14:54:36.506Z,1010.0
2018-02-25T14:55:38.486Z,1010.0
2018-02-25T14:56:40.412Z,1010.0
2018-02-25T14:57:42.324Z,1010.0
2018-02-25T14:58:44.101Z,1010.1
2018-02-25T14:59:45.816Z,1010.0
2018-02-25T15:00:48.134Z,1010.0
2018-02-25T15:01:50.040Z,1010.0
2018-02-25T15:02:51.961Z,1010.1
2018-02-25T15:03:53.836Z,1010.0
2018-02-25T15:04:55.848Z,1010.0
2018-02-25T15:05:57.719Z,1010.0
2018-02-25T15:07:01.661Z,1010.0
2018-02-25T15:08:03.731Z,1010.0
2018-02-25T15:09:05.892Z,1010.0
2018-02-25T15:10:07.851Z,1010.0
2018-02-25T15:11:09.724Z,1010.0
2018-02-25T15:12:11.685Z,1010.0
2018-02-25T15:13:13.496Z,1010.0
2018-02-25T15:14:15.312Z,1010.1
2018-02-25T15:15:17.161Z,1010.0
2018-02-25T15:16:19.044Z,1010.0
2018-02-25T15:17:20.963Z,1010.0
2018-02-25T15:18:22.858Z,1010.0
2018-02-25T15:19:24.640Z,1010.1
2018-02-25T15:20:26.605Z,1010.1
2018-02-25T15:21:28.918Z,1010.0
2018-02-25T15:22:30.555Z,1010.0
2018-02-25T15:23:32.442Z,1010.0
2018-02-25T15:24:34.316Z,1010.0
2018-02-25T15:25:36.109Z,1010.0
2018-02-25T15:26:38.035Z,1010.1
2018-02-25T15:27:39.823Z,1010.0
2018-02-25T15:28:41.820Z,1010.1
2018-02-25T15:29:43.710Z,1010.2
2018-02-25T15:30:45.585Z,1010.4
2018-02-25T15:31:47.541Z,1010.4
2018-02-25T15:32:49.387Z,1010.2
2018-02-25T15:33:51.433Z,1010.1
2018-02-25T15:34:53.288Z,1010.1
2018-02-25T15:35:55.191Z,1010.0
2018-02-25T15:36:57.225Z,1010.1
2018-02-25T15:37:59.279Z,1010.1
2018-02-25T15:39:01.110Z,1010.1
2018-02-25T15:40:02.982Z,1010.1
2018-02-25T15:41:04.802Z,1010.1
2018-02-25T15:42:06.690Z,1010.1
2018-02-25T15:43:08.656Z,1010.1
2018-02-25T15:44:10.725Z,1010.1
2018-02-25T15:45:12.737Z,1010.1
2018-02-25T15:46:14.777Z,1010.1
2018-02-25T15:47:16.861Z,1010.1
2018-02-25T15:48:18.956Z,1010.1
2018-02-25T15:49:21.064Z,1010.1
2018-02-25T15:50:23.012Z,1010.2
2018-02-25T15:51:24.916Z,1010.2
2018-02-25T15:52:26.715Z,1010.2
2018-02-25T15:53:29.170Z,1010.2
2018-02-25T15:54:30.963Z,1010.2
2018-02-25T15:55:32.904Z,1010.2
2018-02-25T15:56:34.858Z,1010.2
2018-02-25T15:57:36.684Z,1010.2
2018-02-25T15:58:38.600Z,1010.2
2018-02-25T15:59:40.498Z,1010.2
2018-02-25T16:00:42.576Z,1010.1
2018-02-25T16:01:44.533Z,1010.2
2018-02-25T16:02:46.472Z,1010.2
2018-02-25T16:03:48.301Z,1010.2
2018-02-25T16:04:50.106Z,1010.2
2018-02-25T16:05:52.135Z,1010.2
2018-02-25T16:06:53.851Z,1010.1
2018-02-25T16:07:55.663Z,1010.2
2018-02-25T16:08:57.540Z,1010.2
2018-02-25T16:09:59.440Z,1010.1
2018-02-25T16:11:01.231Z,1010.1
2018-02-25T16:12:03.074Z,1010.2
2018-02-25T16:13:05.440Z,1010.1
2018-02-25T16:14:07.217Z,1010.1
2018-02-25T16:15:09.046Z,1010.1
2018-02-25T16:16:10.847Z,1010.1
2018-02-25T16:17:12.649Z,1010.1
2018-02-25T16:18:14.434Z,1010.1
2018-02-25T16:19:16.217Z,1010.2
2018-02-25T16:20:17.963Z,1010.2
2018-02-25T16:21:19.763Z,1010.2
2018-02-25T16:22:21.568Z,1010.2
2018-02-25T16:23:23.470Z,1010.1
2018-02-25T16:24:25.357Z,1010.1
2018-02-25T16:25:27.249Z,1010.1
2018-02-25T16:26:29.074Z,1010.1
2018-02-25T16:27:30.876Z,1010.2
2018-02-25T16:28:32.672Z,1010.1
2018-02-25T16:29:34.522Z,1010.2
2018-02-25T16:30:36.339Z,1010.2
2018-02-25T16:31:38.181Z,1010.2
2018-02-25T16:32:39.968Z,1010.2
2018-02-25T16:33:41.739Z,1010.2
2018-02-25T16:34:43.536Z,1010.3
2018-02-25T16:35:45.368Z,1010.3
2018-02-25T16:36:47.312Z,1010.2
2018-02-25T16:37:49.222Z,1010.2
2018-02-25T16:38:51.019Z,1010.2
2018-02-25T16:39:52.866Z,1010.2
2018-02-25T16:40:54.653Z,1010.2
2018-02-25T16:41:56.498Z,1010.2
2018-02-25T16:42:58.259Z,1010.2
2018-02-25T16:44:00.099Z,1010.3
2018-02-25T16:45:01.951Z,1010.3
2018-02-25T16:46:03.712Z,1010.2
2018-02-25T16:47:05.496Z,1010.3
2018-02-25T16:48:07.233Z,1010.3
2018-02-25T16:49:08.960Z,1010.3
2018-02-25T16:50:10.691Z,1010.3
2018-02-25T16:51:12.509Z,1010.3
2018-02-25T16:52:14.313Z,1010.3
2018-02-25T16:53:16.118Z,1010.3
2018-02-25T16:54:17.793Z,1010.3
2018-02-25T16:55:19.525Z,1010.3
2018-02-25T16:56:22.098Z,1010.3
2018-02-25T16:57:23.838Z,1010.2
2018-02-25T16:58:25.599Z,1010.2
2018-02-25T16:59:27.332Z,1010.2
2018-02-25T17:00:29.064Z,1010.1
2018-02-25T17:01:30.796Z,1010.2
2018-02-25T17:02:32.540Z,1010.2
2018-02-25T17:03:34.250Z,1010.2
2018-02-25T17:04:36.019Z,1010.2
2018-02-25T17:05:37.741Z,1010.2
2018-02-25T17:06:39.485Z,1010.2
2018-02-25T17:07:41.229Z,1010.2
2018-02-25T17:08:42.972Z,1010.2
2018-02-25T17:09:44.752Z,1010.2
2018-02-25T17:10:46.474Z,1010.2
2018-02-25T17:11:48.226Z,1010.2
2018-02-25T17:12:49.998Z,1010.2
2018-02-25T17:13:51.707Z,1010.2
2018-02-25T17:14:53.407Z,1010.2
2018-02-25T17:15:55.175Z,1010.3
2018-02-25T17:16:56.950Z,1010.3
2018-02-25T17:17:58.656Z,1010.3
2018-02-25T17:19:00.373Z,1010.3
2018-02-25T17:20:02.085Z,1010.3
2018-02-25T17:21:03.788Z,1010.3
2018-02-25T17:22:05.483Z,1010.3
2018-02-25T17:23:07.193Z,1010.3
2018-02-25T17:24:08.910Z,1010.3
2018-02-25T17:25:10.637Z,1010.4
2018-02-25T17:26:12.329Z,1010.4
2018-02-25T17:27:14.024Z,1010.4
2018-02-25T17:28:15.781Z,1010.4
2018-02-25T17:29:17.556Z,1010.4
2018-02-25T17:30:19.270Z,1010.4
2018-02-25T17:31:20.993Z,1010.4
2018-02-25T17:32:22.746Z,1010.4
2018-02-25T17:33:24.442Z,1010.4
2018-02-25T17:34:26.147Z,1010.4
2018-02-25T17:35:27.926Z,1010.4
2018-02-25T17:36:29.615Z,1010.4
2018-02-25T17:37:31.324Z,1010.4
2018-02-25T17:38:33.023Z,1010.4
2018-02-25T17:39:34.726Z,1010.5
2018-02-25T17:40:36.455Z,1010.5
2018-02-25T17:41:38.214Z,1010.5
2018-02-25T17:42:40.034Z,1010.5
2018-02-25T17:43:41.723Z,1010.5
2018-02-25T17:44:43.462Z,1010.6
2018-02-25T17:45:45.177Z,1010.5
2018-02-25T17:46:46.894Z,1010.5
2018-02-25T17:47:48.625Z,1010.5
2018-02-25T17:48:50.386Z,1010.5
2018-02-25T17:49:52.115Z,1010.5
2018-02-25T17:50:53.894Z,1010.5
2018-02-25T17:51:55.679Z,1010.5
2018-02-25T17:52:57.421Z,1010.6
2018-02-25T17:53:59.203Z,1010.6
2018-02-25T17:55:00.911Z,1010.6
2018-02-25T17:56:02.643Z,1010.5
2018-02-25T17:57:04.379Z,1010.6
2018-02-25T17:58:06.643Z,1010.6
2018-02-25T17:59:07.820Z,1010.6
2018-02-25T18:00:09.566Z,1010.6
2018-02-25T18:01:11.297Z,1010.6
2018-02-25T18:02:13.047Z,1010.7
2018-02-25T18:03:14.784Z,1010.7
2018-02-25T18:04:16.547Z,1010.7
2018-02-25T18:05:18.349Z,1010.7
2018-02-25T18:06:20.092Z,1010.7
2018-02-25T18:07:21.807Z,1010.7
2018-02-25T18:08:23.511Z,1010.7
2018-02-25T18:09:25.236Z,1010.7
2018-02-25T18:10:26.979Z,1010.6
2018-02-25T18:11:28.698Z,1010.7
2018-02-25T18:12:30.436Z,1010.7
2018-02-25T18:13:32.225Z,1010.7
2018-02-25T18:14:33.968Z,1010.7
2018-02-25T18:15:35.676Z,1010.7
2018-02-25T18:16:37.462Z,1010.7
2018-02-25T18:17:39.178Z,1010.7
2018-02-25T18:18:41.015Z,1010.7
2018-02-25T18:19:42.790Z,1010.7
2018-02-25T18:20:44.519Z,1010.7
2018-02-25T18:21:46.259Z,1010.7
2018-02-25T18:22:48.022Z,1010.7
2018-02-25T18:23:49.808Z,1010.8
2018-02-25T18:24:51.570Z,1010.8
2018-02-25T18:25:53.320Z,1010.7
2018-02-25T18:26:55.050Z,1010.8
2018-02-25T18:27:56.799Z,1010.8
2018-02-25T18:28:58.595Z,1010.8
2018-02-25T18:30:00.334Z,1010.8
2018-02-25T18:31:02.071Z,1010.8
2018-02-25T18:32:03.786Z,1010.8
2018-02-25T18:33:05.514Z,1010.9
2018-02-25T18:34:07.251Z,1010.9
2018-02-25T18:35:08.974Z,1010.9
2018-02-25T18:36:10.720Z,1010.8
2018-02-25T18:37:12.463Z,1010.8
2018-02-25T18:38:14.203Z,1010.8
2018-02-25T18:39:15.940Z,1010.8
2018-02-25T18:40:17.715Z,1010.8
2018-02-25T18:41:19.466Z,1010.8
2018-02-25T18:42:21.230Z,1010.8
2018-02-25T18:43:22.972Z,1010.8
2018-02-25T18:44:24.783Z,1010.8
2018-02-25T18:45:26.529Z,1010.8
2018-02-25T18:46:28.278Z,1010.8
2018-02-25T18:47:30.007Z,1010.8
2018-02-25T18:48:31.718Z,1010.8
2018-02-25T18:49:33.458Z,1010.8
2018-02-25T18:50:35.219Z,1010.8
2018-02-25T18:51:36.945Z,1010.8
2018-02-25T18:52:38.724Z,1010.8
2018-02-25T18:53:40.447Z,1010.8
2018-02-25T18:54:42.405Z,1010.8
2018-02-25T18:55:44.131Z,1010.8
2018-02-25T18:56:45.846Z,1010.8
2018-02-25T18:57:47.994Z,1010.9
2018-02-25T18:58:49.700Z,1010.9
2018-02-25T18:59:51.571Z,1010.9
2018-02-25T19:00:53.658Z,1010.8
2018-02-25T19:01:55.388Z,1010.8
2018-02-25T19:02:57.125Z,1010.8
2018-02-25T19:03:58.849Z,1010.8
2018-02-25T19:05:00.968Z,1010.8
2018-02-25T19:06:02.786Z,1010.8
2018-02-25T19:07:04.543Z,1010.8
2018-02-25T19:08:06.540Z,1010.8
2018-02-25T19:09:08.526Z,1010.8
2018-02-25T19:10:10.291Z,1010.8
2018-02-25T19:11:12.094Z,1010.8
2018-02-25T19:12:13.833Z,1010.8
2018-02-25T19:13:15.555Z,1010.8
2018-02-25T19:14:17.393Z,1010.9
2018-02-25T19:15:19.121Z,1010.9
2018-02-25T19:16:20.902Z,1010.9
2018-02-25T19:17:23.067Z,1010.9
2018-02-25T19:18:24.759Z,1010.9
2018-02-25T19:19:26.483Z,1010.9
2018-02-25T19:20:28.199Z,1010.9
2018-02-25T19:21:29.948Z,1010.9
2018-02-25T19:22:31.656Z,1010.9
2018-02-25T19:23:33.493Z,1010.9
2018-02-25T19:24:35.210Z,1010.9
2018-02-25T19:25:36.970Z,1010.8
2018-02-25T19:26:38.757Z,1010.9
2018-02-25T19:27:40.674Z,1010.8
2018-02-25T19:28:42.438Z,1010.8
2018-02-25T19:29:44.187Z,1010.8
2018-02-25T19:30:46.308Z,1010.8
2018-02-25T19:31:48.017Z,1010.8
2018-02-25T19:32:49.791Z,1010.8
2018-02-25T19:33:51.620Z,1010.8
2018-02-25T19:34:53.399Z,1010.8
2018-02-25T19:35:55.216Z,1010.8
2018-02-25T19:36:56.960Z,1010.8
2018-02-25T19:37:58.811Z,1010.9
2018-02-25T19:39:00.574Z,1010.9
2018-02-25T19:40:02.366Z,1010.8
2018-02-25T19:41:04.067Z,1010.8
2018-02-25T19:42:05.796Z,1010.9
2018-02-25T19:43:07.560Z,1010.9
2018-02-25T19:44:09.275Z,1010.8
2018-02-25T19:45:10.998Z,1010.8
2018-02-25T19:46:12.851Z,1010.8
2018-02-25T19:47:14.580Z,1010.9
2018-02-25T19:48:16.342Z,1010.8
2018-02-25T19:49:18.060Z,1010.8
2018-02-25T19:50:19.782Z,1010.8
2018-02-25T19:51:21.535Z,1010.9
2018-02-25T19:52:23.336Z,1010.8
2018-02-25T19:53:25.058Z,1010.8
2018-02-25T19:54:26.811Z,1010.8
2018-02-25T19:55:28.548Z,1010.8
2018-02-25T19:56:30.334Z,1010.8
2018-02-25T19:57:32.539Z,1010.8
2018-02-25T19:58:34.644Z,1010.8
2018-02-25T19:59:36.396Z,1010.8
2018-02-25T20:00:38.107Z,1010.8
2018-02-25T20:01:39.810Z,1010.8
2018-02-25T20:02:41.549Z,1010.8
2018-02-25T20:03:43.263Z,1010.8
2018-02-25T20:04:45.029Z,1010.8
2018-02-25T20:05:46.759Z,1010.8
2018-02-25T20:06:48.529Z,1010.8
2018-02-25T20:07:50.456Z,1010.8
2018-02-25T20:08:52.591Z,1010.8
2018-02-25T20:09:54.345Z,1010.7
2018-02-25T20:10:56.102Z,1010.8
2018-02-25T20:11:57.894Z,1010.8
2018-02-25T20:12:59.597Z,1010.8
2018-02-25T20:14:01.334Z,1010.8
2018-02-25T20:15:03.119Z,1010.8
2018-02-25T20:16:04.902Z,1010.8
2018-02-25T20:17:06.804Z,1010.7
2018-02-25T20:18:09.265Z,1010.8
2018-02-25T20:19:10.998Z,1010.8
2018-02-25T20:20:13.116Z,1010.8
2018-02-25T20:21:14.864Z,1010.8
2018-02-25T20:22:16.591Z,1010.8
2018-02-25T20:23:18.412Z,1010.8
2018-02-25T20:24:20.302Z,1010.8
2018-02-25T20:25:22.144Z,1010.8
2018-02-25T20:26:23.954Z,1010.8
2018-02-25T20:27:25.754Z,1010.7
2018-02-25T20:28:27.535Z,1010.7
2018-02-25T20:29:29.328Z,1010.7
2018-02-25T20:30:31.122Z,1010.8
2018-02-25T20:31:32.933Z,1010.8
2018-02-25T20:32:34.740Z,1010.8
2018-02-25T20:33:36.518Z,1010.8
2018-02-25T20:34:38.315Z,1010.8
2018-02-25T20:35:40.112Z,1010.7
2018-02-25T20:36:41.962Z,1010.8
2018-02-25T20:37:43.739Z,1010.8
2018-02-25T20:38:45.570Z,1010.8
2018-02-25T20:39:47.382Z,1010.8
2018-02-25T20:40:49.191Z,1010.8
2018-02-25T20:41:50.997Z,1010.8
2018-02-25T20:42:52.801Z,1010.8
2018-02-25T20:43:54.590Z,1010.8
2018-02-25T20:44:59.291Z,1010.8
2018-02-25T20:46:01.207Z,1010.8
2018-02-25T20:47:03.034Z,1010.8
2018-02-25T20:48:05.807Z,1010.8
2018-02-25T20:49:07.723Z,1010.8
2018-02-25T20:50:10.042Z,1010.8
2018-02-25T20:51:12.176Z,1010.8
2018-02-25T20:52:14.041Z,1010.8
2018-02-25T20:53:16.365Z,1010.7
2018-02-25T20:54:18.298Z,1010.7
2018-02-25T20:55:20.396Z,1010.7
2018-02-25T20:56:22.173Z,1010.7
2018-02-25T20:57:24.259Z,1010.7
2018-02-25T20:58:26.085Z,1010.7
2018-02-25T20:59:28.904Z,1010.7
2018-02-25T21:00:30.750Z,1010.8
2018-02-25T21:01:32.693Z,1010.7
2018-02-25T21:02:34.515Z,1010.8
2018-02-25T21:03:36.431Z,1010.8
2018-02-25T21:04:38.329Z,1010.8
2018-02-25T21:05:40.197Z,1010.8
2018-02-25T21:06:42.092Z,1010.7
2018-02-25T21:07:44.882Z,1010.8
2018-02-25T21:08:46.808Z,1010.8
2018-02-25T21:09:48.631Z,1010.7
2018-02-25T21:10:50.401Z,1010.8
2018-02-25T21:11:52.280Z,1010.7
2018-02-25T21:12:54.113Z,1010.7
2018-02-25T21:13:55.971Z,1010.7
2018-02-25T21:14:59.474Z,1010.7
2018-02-25T21:16:01.800Z,1010.7
2018-02-25T21:17:05.278Z,1010.7
2018-02-25T21:18:07.740Z,1010.7
2018-02-25T21:19:09.816Z,1010.7
2018-02-25T21:20:11.723Z,1010.8
2018-02-25T21:21:16.098Z,1010.8
2018-02-25T21:22:18.072Z,1010.7
2018-02-25T21:23:20.309Z,1010.7
2018-02-25T21:24:22.841Z,1010.7
2018-02-25T21:25:24.714Z,1010.7
2018-02-25T21:26:26.780Z,1010.7
2018-02-25T21:27:32.256Z,1010.6
2018-02-25T21:28:34.891Z,1010.6
2018-02-25T21:29:39.084Z,1010.6
2018-02-25T21:30:41.418Z,1010.6
2018-02-25T21:31:43.736Z,1010.6
2018-02-25T21:32:48.856Z,1010.7
2018-02-25T21:33:50.697Z,1010.6
2018-02-25T21:34:52.628Z,1010.6
2018-02-25T21:35:57.500Z,1010.6
2018-02-25T21:37:02.259Z,1010.6
2018-02-25T21:38:04.386Z,1010.6
2018-02-25T21:39:06.758Z,1010.6
2018-02-25T21:40:12.062Z,1010.6
2018-02-25T21:41:13.838Z,1010.6
2018-02-25T21:42:15.697Z,1010.6
2018-02-25T21:43:17.540Z,1010.6
2018-02-25T21:44:19.479Z,1010.5
2018-02-25T21:45:21.242Z,1010.5
2018-02-25T21:46:23.029Z,1010.5
2018-02-25T21:47:25.285Z,1010.5
2018-02-25T21:48:27.606Z,1010.5
2018-02-25T21:49:30.146Z,1010.5
2018-02-25T21:50:33.147Z,1010.5
2018-02-25T21:51:40.637Z,1010.5
2018-02-25T21:52:43.616Z,1010.5
2018-02-25T21:53:45.395Z,1010.5
2018-02-25T21:54:48.325Z,1010.5
2018-02-25T21:55:50.154Z,1010.5
2018-02-25T21:56:53.395Z,1010.5
2018-02-25T21:57:55.543Z,1010.5
2018-02-25T21:58:57.356Z,1010.4
2018-02-25T22:00:01.054Z,1010.4
2018-02-25T22:01:02.837Z,1010.4
2018-02-25T22:02:05.336Z,1010.4
2018-02-25T22:03:07.572Z,1010.4
2018-02-25T22:04:09.469Z,1010.5
2018-02-25T22:05:11.284Z,1010.5
2018-02-25T22:06:14.149Z,1010.5
2018-02-25T22:07:17.883Z,1010.5
2018-02-25T22:08:20.122Z,1010.5
2018-02-25T22:09:21.921Z,1010.5
2018-02-25T22:10:23.787Z,1010.5
2018-02-25T22:11:25.905Z,1010.5
2018-02-25T22:12:28.071Z,1010.5
2018-02-25T22:13:30.414Z,1010.5
2018-02-25T22:14:32.527Z,1010.5
2018-02-25T22:15:34.554Z,1010.5
2018-02-25T22:16:36.516Z,1010.5
2018-02-25T22:17:38.390Z,1010.5
2018-02-25T22:18:40.248Z,1010.5
2018-02-25T22:19:42.270Z,1010.4
2018-02-25T22:20:44.926Z,1010.5
2018-02-25T22:21:48.264Z,1010.4
2018-02-25T22:22:50.544Z,1010.4
2018-02-25T22:23:54.247Z,1010.4
2018-02-25T22:24:55.962Z,1010.4
2018-02-25T22:25:58.021Z,1010.4
2018-02-25T22:27:02.632Z,1010.3
2018-02-25T22:28:04.598Z,1010.3
2018-02-25T22:29:06.500Z,1010.3
2018-02-25T22:30:09.762Z,1010.3
2018-02-25T22:31:11.936Z,1010.3
2018-02-25T22:32:13.876Z,1010.3
2018-02-25T22:33:15.716Z,1010.3
2018-02-25T22:34:17.500Z,1010.3
2018-02-25T22:35:19.305Z,1010.3
2018-02-25T22:36:21.063Z,1010.2
2018-02-25T22:37:22.906Z,1010.3
2018-02-25T22:38:24.650Z,1010.3
2018-02-25T22:39:26.399Z,1010.3
2018-02-25T22:40:28.139Z,1010.3
2018-02-25T22:41:29.851Z,1010.3
2018-02-25T22:42:31.563Z,1010.3
2018-02-25T22:43:33.264Z,1010.3
2018-02-25T22:44:34.978Z,1010.3
2018-02-25T22:45:36.691Z,1010.3
2018-02-25T22:46:38.432Z,1010.3
2018-02-25T22:47:40.164Z,1010.3
2018-02-25T22:48:41.933Z,1010.3
2018-02-25T22:49:43.679Z,1010.2
2018-02-25T22:50:45.387Z,1010.2
2018-02-25T22:51:47.159Z,1010.2
2018-02-25T22:52:48.914Z,1010.2
2018-02-25T22:53:50.671Z,1010.2
2018-02-25T22:54:52.469Z,1010.3
2018-02-25T22:55:54.233Z,1010.2
2018-02-25T22:56:56.273Z,1010.2
2018-02-25T22:57:58.002Z,1010.2
2018-02-25T22:58:59.723Z,1010.2
2018-02-25T23:00:01.437Z,1010.3
2018-02-25T23:01:03.196Z,1010.3
2018-02-25T23:02:04.945Z,1010.3
2018-02-25T23:03:06.682Z,1010.3
2018-02-25T23:04:08.418Z,1010.3
2018-02-25T23:05:10.160Z,1010.2
2018-02-25T23:06:11.930Z,1010.2
2018-02-25T23:07:13.684Z,1010.2
2018-02-25T23:08:15.387Z,1010.2
2018-02-25T23:09:17.118Z,1010.2
2018-02-25T23:10:18.869Z,1010.1
2018-02-25T23:11:20.600Z,1010.1
2018-02-25T23:12:22.313Z,1010.1
2018-02-25T23:13:24.071Z,1010.1
2018-02-25T23:14:26.097Z,1010.1
2018-02-25T23:15:28.013Z,1010.1
2018-02-25T23:16:29.982Z,1010.0
2018-02-25T23:17:31.886Z,1010.0
2018-02-25T23:18:33.888Z,1010.0
2018-02-25T23:19:36.488Z,1010.0
2018-02-25T23:20:38.549Z,1010.0
2018-02-25T23:21:40.584Z,1010.0
2018-02-25T23:22:42.586Z,1010.0
2018-02-25T23:23:44.521Z,1010.0
2018-02-25T23:24:46.564Z,1010.0
2018-02-25T23:25:48.595Z,1010.0
2018-02-25T23:26:50.725Z,1009.9
2018-02-25T23:27:52.642Z,1010.0
2018-02-25T23:28:54.680Z,1010.0
2018-02-25T23:29:56.544Z,1009.9
2018-02-25T23:30:58.561Z,1009.9
2018-02-25T23:32:00.545Z,1009.9
2018-02-25T23:33:02.698Z,1009.9
2018-02-25T23:34:04.743Z,1009.8
2018-02-25T23:35:06.867Z,1009.8
2018-02-25T23:36:08.790Z,1009.8
2018-02-25T23:37:10.840Z,1009.8
2018-02-25T23:38:12.738Z,1009.8
2018-02-25T23:39:14.680Z,1009.8
2018-02-25T23:40:16.699Z,1009.8
2018-02-25T23:41:18.647Z,1009.8
2018-02-25T23:42:20.643Z,1009.8
2018-02-25T23:43:22.533Z,1009.8
2018-02-25T23:44:24.520Z,1009.8
2018-02-25T23:45:26.494Z,1009.8
2018-02-25T23:46:28.548Z,1009.8
2018-02-25T23:47:30.443Z,1009.8
2018-02-25T23:48:32.449Z,1009.8
2018-02-25T23:49:34.450Z,1009.8
2018-02-25T23:50:36.590Z,1009.8
2018-02-25T23:51:38.502Z,1009.8
2018-02-25T23:52:40.590Z,1009.7
2018-02-25T23:53:42.567Z,1009.7
2018-02-25T23:54:44.748Z,1009.7
2018-02-25T23:55:46.690Z,1009.7
2018-02-25T23:56:48.798Z,1009.8
2018-02-25T23:57:50.722Z,1009.7
2018-02-25T23:58:52.899Z,1009.8
2018-02-25T23:59:54.921Z,1009.8
